sensor_id;sensor_type;location;lat;lon;timestamp;pressure;altitude;pressure_sealevel;temperature;humidity
24558;BME280;12726;49.148;8.582;2022-12-24T00:00:45;99941.69;;;10.72;100.00
24558;BME280;12726;49.148;8.582;2022-12-24T00:03:31;99946.84;;;10.74;100.00
24558;BME280;12726;49.148;8.582;2022-12-24T00:06:17;99934.28;;;10.68;100.00
24558;BME280;12726;49.148;8.582;2022-12-24T00:09:04;99940.41;;;10.56;100.00
24558;BME280;12726;49.148;8.582;2022-12-24T00:11:49;99938.16;;;10.53;100.00
24558;BME280;12726;49.148;8.582;2022-12-24T00:14:35;99938.69;;;10.44;100.00
24558;BME280;12726;49.148;8.582;2022-12-24T00:17:21;99929.63;;;10.38;100.00
24558;BME280;12726;49.148;8.582;2022-12-24T00:20:07;99939.19;;;10.34;100.00
24558;BME280;12726;49.148;8.582;2022-12-24T00:22:53;99941.75;;;10.29;100.00
24558;BME280;12726;49.148;8.582;2022-12-24T00:25:39;99944.84;;;10.26;100.00
24558;BME280;12726;49.148;8.582;2022-12-24T00:28:25;99943.22;;;10.25;100.00
24558;BME280;12726;49.148;8.582;2022-12-24T00:31:12;99949.63;;;10.24;100.00
24558;BME280;12726;49.148;8.582;2022-12-24T00:33:57;99939.06;;;10.29;100.00
24558;BME280;12726;49.148;8.582;2022-12-24T00:36:43;99944.16;;;10.37;100.00
24558;BME280;12726;49.148;8.582;2022-12-24T00:39:28;99950.72;;;10.41;100.00
24558;BME280;12726;49.148;8.582;2022-12-24T00:42:15;99967.47;;;10.43;100.00
24558;BME280;12726;49.148;8.582;2022-12-24T00:45:00;99974.03;;;10.47;100.00
24558;BME280;12726;49.148;8.582;2022-12-24T00:47:45;99983.16;;;10.46;100.00
24558;BME280;12726;49.148;8.582;2022-12-24T00:50:30;99975.38;;;10.38;100.00
24558;BME280;12726;49.148;8.582;2022-12-24T00:53:16;99985.63;;;10.48;100.00
24558;BME280;12726;49.148;8.582;2022-12-24T00:56:02;99987.44;;;10.54;100.00
24558;BME280;12726;49.148;8.582;2022-12-24T00:58:49;99999.25;;;10.53;100.00
24558;BME280;12726;49.148;8.582;2022-12-24T01:01:34;100001.88;;;10.59;100.00
24558;BME280;12726;49.148;8.582;2022-12-24T01:04:19;100004.41;;;10.54;100.00
24558;BME280;12726;49.148;8.582;2022-12-24T01:07:22;100010.84;;;10.53;100.00
24558;BME280;12726;49.148;8.582;2022-12-24T01:10:08;100020.78;;;10.53;100.00
24558;BME280;12726;49.148;8.582;2022-12-24T01:12:54;100020.41;;;10.49;100.00
24558;BME280;12726;49.148;8.582;2022-12-24T01:15:41;100023.75;;;10.45;100.00
24558;BME280;12726;49.148;8.582;2022-12-24T01:18:26;100036.84;;;10.41;100.00
24558;BME280;12726;49.148;8.582;2022-12-24T01:21:11;100036.00;;;10.41;100.00
24558;BME280;12726;49.148;8.582;2022-12-24T01:23:57;100034.06;;;10.48;100.00
24558;BME280;12726;49.148;8.582;2022-12-24T01:26:42;100025.44;;;10.39;100.00
24558;BME280;12726;49.148;8.582;2022-12-24T01:29:28;100038.69;;;10.41;100.00
24558;BME280;12726;49.148;8.582;2022-12-24T01:32:15;100038.63;;;10.47;100.00
24558;BME280;12726;49.148;8.582;2022-12-24T01:35:00;100050.16;;;10.54;100.00
24558;BME280;12726;49.148;8.582;2022-12-24T01:37:45;100051.41;;;10.52;100.00
24558;BME280;12726;49.148;8.582;2022-12-24T01:40:31;100057.56;;;10.59;100.00
24558;BME280;12726;49.148;8.582;2022-12-24T01:43:34;100070.25;;;10.52;100.00
24558;BME280;12726;49.148;8.582;2022-12-24T01:46:23;100075.50;;;10.47;100.00
24558;BME280;12726;49.148;8.582;2022-12-24T01:49:13;100085.00;;;10.49;100.00
24558;BME280;12726;49.148;8.582;2022-12-24T01:52:01;100092.72;;;10.39;100.00
24558;BME280;12726;49.148;8.582;2022-12-24T01:54:49;100092.41;;;10.29;100.00
24558;BME280;12726;49.148;8.582;2022-12-24T01:57:39;100096.56;;;10.25;100.00
24558;BME280;12726;49.148;8.582;2022-12-24T02:00:26;100100.25;;;10.31;100.00
24558;BME280;12726;49.148;8.582;2022-12-24T02:03:12;100099.59;;;10.35;100.00
24558;BME280;12726;49.148;8.582;2022-12-24T02:05:59;100095.31;;;10.28;100.00
24558;BME280;12726;49.148;8.582;2022-12-24T02:08:45;100093.88;;;10.25;100.00
24558;BME280;12726;49.148;8.582;2022-12-24T02:11:30;100094.69;;;10.26;100.00
24558;BME280;12726;49.148;8.582;2022-12-24T02:14:16;100114.75;;;10.30;100.00
24558;BME280;12726;49.148;8.582;2022-12-24T02:17:09;100115.19;;;10.27;100.00
24558;BME280;12726;49.148;8.582;2022-12-24T02:20:18;100119.63;;;10.39;100.00
24558;BME280;12726;49.148;8.582;2022-12-24T02:26:29;100098.06;;;10.21;100.00
24558;BME280;12726;49.148;8.582;2022-12-24T02:29:30;100105.72;;;10.17;100.00
24558;BME280;12726;49.148;8.582;2022-12-24T02:32:25;100115.25;;;10.13;100.00
24558;BME280;12726;49.148;8.582;2022-12-24T02:35:20;100112.38;;;10.08;100.00
24558;BME280;12726;49.148;8.582;2022-12-24T02:38:15;100120.25;;;10.03;100.00
24558;BME280;12726;49.148;8.582;2022-12-24T02:41:06;100117.19;;;10.00;100.00
24558;BME280;12726;49.148;8.582;2022-12-24T02:43:54;100113.91;;;9.91;100.00
24558;BME280;12726;49.148;8.582;2022-12-24T02:46:41;100107.13;;;9.82;100.00
24558;BME280;12726;49.148;8.582;2022-12-24T02:49:28;100104.69;;;9.74;100.00
24558;BME280;12726;49.148;8.582;2022-12-24T02:52:30;100096.66;;;9.67;100.00
24558;BME280;12726;49.148;8.582;2022-12-24T02:55:18;100093.78;;;9.62;100.00
24558;BME280;12726;49.148;8.582;2022-12-24T02:58:15;100085.13;;;9.60;100.00
24558;BME280;12726;49.148;8.582;2022-12-24T03:01:12;100092.97;;;9.62;100.00
24558;BME280;12726;49.148;8.582;2022-12-24T03:04:08;100099.38;;;9.61;100.00
24558;BME280;12726;49.148;8.582;2022-12-24T03:06:59;100108.22;;;9.68;100.00
24558;BME280;12726;49.148;8.582;2022-12-24T03:09:58;100121.50;;;9.63;100.00
24558;BME280;12726;49.148;8.582;2022-12-24T03:12:47;100132.03;;;9.64;100.00
24558;BME280;12726;49.148;8.582;2022-12-24T03:15:36;100117.78;;;9.64;100.00
24558;BME280;12726;49.148;8.582;2022-12-24T03:18:24;100124.38;;;9.68;100.00
24558;BME280;12726;49.148;8.582;2022-12-24T03:21:13;100112.44;;;9.57;100.00
24558;BME280;12726;49.148;8.582;2022-12-24T03:24:03;100119.50;;;9.52;100.00
24558;BME280;12726;49.148;8.582;2022-12-24T03:26:49;100118.88;;;9.50;100.00
24558;BME280;12726;49.148;8.582;2022-12-24T03:29:37;100121.94;;;9.53;100.00
24558;BME280;12726;49.148;8.582;2022-12-24T03:32:24;100129.41;;;9.51;100.00
24558;BME280;12726;49.148;8.582;2022-12-24T03:35:10;100148.81;;;9.53;100.00
24558;BME280;12726;49.148;8.582;2022-12-24T03:37:55;100146.13;;;9.53;100.00
24558;BME280;12726;49.148;8.582;2022-12-24T03:40:42;100148.16;;;9.64;100.00
24558;BME280;12726;49.148;8.582;2022-12-24T03:43:27;100139.66;;;9.67;100.00
24558;BME280;12726;49.148;8.582;2022-12-24T03:46:15;100139.66;;;9.67;100.00
24558;BME280;12726;49.148;8.582;2022-12-24T03:49:01;100127.25;;;9.73;100.00
24558;BME280;12726;49.148;8.582;2022-12-24T03:51:46;100119.75;;;9.81;100.00
24558;BME280;12726;49.148;8.582;2022-12-24T03:54:32;100143.94;;;9.81;100.00
24558;BME280;12726;49.148;8.582;2022-12-24T03:57:20;100145.72;;;10.01;100.00
24558;BME280;12726;49.148;8.582;2022-12-24T04:00:06;100152.91;;;10.13;100.00
24558;BME280;12726;49.148;8.582;2022-12-24T04:02:52;100162.28;;;10.42;100.00
24558;BME280;12726;49.148;8.582;2022-12-24T04:05:37;100165.78;;;10.43;100.00
24558;BME280;12726;49.148;8.582;2022-12-24T04:08:22;100168.06;;;10.39;100.00
24558;BME280;12726;49.148;8.582;2022-12-24T04:11:14;100159.44;;;10.31;100.00
24558;BME280;12726;49.148;8.582;2022-12-24T04:14:01;100180.00;;;10.18;100.00
24558;BME280;12726;49.148;8.582;2022-12-24T04:16:48;100166.75;;;10.10;100.00
24558;BME280;12726;49.148;8.582;2022-12-24T04:19:34;100161.63;;;10.02;100.00
24558;BME280;12726;49.148;8.582;2022-12-24T04:22:19;100166.66;;;9.92;100.00
24558;BME280;12726;49.148;8.582;2022-12-24T04:25:05;100167.53;;;9.86;100.00
24558;BME280;12726;49.148;8.582;2022-12-24T04:27:53;100160.88;;;9.89;100.00
24558;BME280;12726;49.148;8.582;2022-12-24T04:30:40;100173.69;;;9.93;100.00
24558;BME280;12726;49.148;8.582;2022-12-24T04:33:25;100195.63;;;9.90;100.00
24558;BME280;12726;49.148;8.582;2022-12-24T04:36:12;100182.16;;;9.97;100.00
24558;BME280;12726;49.148;8.582;2022-12-24T04:38:57;100186.34;;;9.86;100.00
24558;BME280;12726;49.148;8.582;2022-12-24T04:41:43;100191.47;;;9.88;100.00
24558;BME280;12726;49.148;8.582;2022-12-24T04:44:28;100188.16;;;9.99;100.00
24558;BME280;12726;49.148;8.582;2022-12-24T04:47:15;100187.94;;;10.00;100.00
24558;BME280;12726;49.148;8.582;2022-12-24T04:50:00;100189.09;;;10.17;100.00
24558;BME280;12726;49.148;8.582;2022-12-24T04:52:46;100191.75;;;10.24;100.00
24558;BME280;12726;49.148;8.582;2022-12-24T04:55:31;100198.00;;;10.18;100.00
24558;BME280;12726;49.148;8.582;2022-12-24T04:58:16;100201.13;;;10.15;100.00
24558;BME280;12726;49.148;8.582;2022-12-24T05:01:02;100199.63;;;10.26;100.00
24558;BME280;12726;49.148;8.582;2022-12-24T05:03:50;100206.69;;;10.20;100.00
24558;BME280;12726;49.148;8.582;2022-12-24T05:06:36;100202.94;;;10.28;100.00
24558;BME280;12726;49.148;8.582;2022-12-24T05:09:21;100194.69;;;10.23;100.00
24558;BME280;12726;49.148;8.582;2022-12-24T05:12:06;100185.09;;;10.33;100.00
24558;BME280;12726;49.148;8.582;2022-12-24T05:14:51;100189.66;;;10.33;100.00
24558;BME280;12726;49.148;8.582;2022-12-24T05:17:37;100183.66;;;10.31;100.00
24558;BME280;12726;49.148;8.582;2022-12-24T05:20:24;100182.19;;;10.35;100.00
24558;BME280;12726;49.148;8.582;2022-12-24T05:23:14;100187.94;;;10.38;100.00
24558;BME280;12726;49.148;8.582;2022-12-24T05:26:22;100182.56;;;10.38;100.00
24558;BME280;12726;49.148;8.582;2022-12-24T05:29:11;100189.22;;;10.36;100.00
24558;BME280;12726;49.148;8.582;2022-12-24T05:31:56;100194.81;;;10.34;100.00
24558;BME280;12726;49.148;8.582;2022-12-24T05:34:41;100198.97;;;10.30;100.00
24558;BME280;12726;49.148;8.582;2022-12-24T05:37:28;100203.56;;;10.30;100.00
24558;BME280;12726;49.148;8.582;2022-12-24T05:40:13;100204.53;;;10.35;100.00
24558;BME280;12726;49.148;8.582;2022-12-24T05:42:59;100208.28;;;10.34;100.00
24558;BME280;12726;49.148;8.582;2022-12-24T05:45:44;100216.13;;;10.36;100.00
24558;BME280;12726;49.148;8.582;2022-12-24T05:48:29;100225.22;;;10.41;100.00
24558;BME280;12726;49.148;8.582;2022-12-24T05:51:17;100224.00;;;10.37;100.00
24558;BME280;12726;49.148;8.582;2022-12-24T05:54:04;100223.72;;;10.45;100.00
24558;BME280;12726;49.148;8.582;2022-12-24T05:56:49;100230.16;;;10.44;100.00
24558;BME280;12726;49.148;8.582;2022-12-24T05:59:35;100232.88;;;10.38;100.00
24558;BME280;12726;49.148;8.582;2022-12-24T06:02:20;100234.13;;;10.42;100.00
24558;BME280;12726;49.148;8.582;2022-12-24T06:05:06;100231.78;;;10.45;100.00
24558;BME280;12726;49.148;8.582;2022-12-24T06:07:52;100229.09;;;10.45;100.00
24558;BME280;12726;49.148;8.582;2022-12-24T06:10:38;100230.97;;;10.45;100.00
24558;BME280;12726;49.148;8.582;2022-12-24T06:13:24;100243.63;;;10.44;100.00
24558;BME280;12726;49.148;8.582;2022-12-24T06:16:11;100240.75;;;10.39;100.00
24558;BME280;12726;49.148;8.582;2022-12-24T06:18:57;100238.88;;;10.40;100.00
24558;BME280;12726;49.148;8.582;2022-12-24T06:21:43;100243.63;;;10.38;100.00
24558;BME280;12726;49.148;8.582;2022-12-24T06:24:28;100241.59;;;10.33;100.00
24558;BME280;12726;49.148;8.582;2022-12-24T06:27:14;100244.69;;;10.37;99.98
24558;BME280;12726;49.148;8.582;2022-12-24T06:30:00;100246.75;;;10.41;99.82
24558;BME280;12726;49.148;8.582;2022-12-24T06:32:45;100246.94;;;10.40;99.91
24558;BME280;12726;49.148;8.582;2022-12-24T06:35:30;100265.16;;;10.38;99.54
24558;BME280;12726;49.148;8.582;2022-12-24T06:38:16;100267.84;;;10.38;99.66
24558;BME280;12726;49.148;8.582;2022-12-24T06:41:04;100269.50;;;10.39;99.16
24558;BME280;12726;49.148;8.582;2022-12-24T06:43:51;100268.06;;;10.43;99.25
24558;BME280;12726;49.148;8.582;2022-12-24T06:46:37;100275.72;;;10.39;99.64
24558;BME280;12726;49.148;8.582;2022-12-24T06:49:22;100264.13;;;10.39;99.20
24558;BME280;12726;49.148;8.582;2022-12-24T06:52:07;100268.66;;;10.51;97.80
24558;BME280;12726;49.148;8.582;2022-12-24T06:54:53;100264.91;;;10.46;97.66
24558;BME280;12726;49.148;8.582;2022-12-24T06:57:38;100277.72;;;10.57;96.92
24558;BME280;12726;49.148;8.582;2022-12-24T07:00:25;100273.78;;;10.53;97.57
24558;BME280;12726;49.148;8.582;2022-12-24T07:03:10;100286.00;;;10.55;96.55
24558;BME280;12726;49.148;8.582;2022-12-24T07:05:56;100291.59;;;10.54;97.03
24558;BME280;12726;49.148;8.582;2022-12-24T07:08:41;100305.25;;;10.52;97.14
24558;BME280;12726;49.148;8.582;2022-12-24T07:11:27;100295.56;;;10.51;97.33
24558;BME280;12726;49.148;8.582;2022-12-24T07:14:12;100295.56;;;10.51;97.41
24558;BME280;12726;49.148;8.582;2022-12-24T07:16:59;100304.25;;;10.47;97.19
24558;BME280;12726;49.148;8.582;2022-12-24T07:19:44;100298.88;;;10.47;97.77
24558;BME280;12726;49.148;8.582;2022-12-24T07:22:29;100298.03;;;10.46;97.51
24558;BME280;12726;49.148;8.582;2022-12-24T07:25:15;100301.56;;;10.47;96.83
24558;BME280;12726;49.148;8.582;2022-12-24T07:28:00;100283.97;;;10.51;96.76
24558;BME280;12726;49.148;8.582;2022-12-24T07:30:46;100293.91;;;10.50;96.21
24558;BME280;12726;49.148;8.582;2022-12-24T07:33:33;100292.25;;;10.49;96.38
24558;BME280;12726;49.148;8.582;2022-12-24T07:36:20;100291.81;;;10.52;96.26
24558;BME280;12726;49.148;8.582;2022-12-24T07:39:05;100297.84;;;10.48;96.57
24558;BME280;12726;49.148;8.582;2022-12-24T07:41:51;100320.00;;;10.50;96.19
24558;BME280;12726;49.148;8.582;2022-12-24T07:44:36;100320.00;;;10.50;96.46
24558;BME280;12726;49.148;8.582;2022-12-24T07:47:22;100328.47;;;10.47;96.33
24558;BME280;12726;49.148;8.582;2022-12-24T07:50:09;100314.81;;;10.48;96.66
24558;BME280;12726;49.148;8.582;2022-12-24T07:52:54;100309.59;;;10.53;96.36
24558;BME280;12726;49.148;8.582;2022-12-24T07:55:40;100312.31;;;10.53;96.19
24558;BME280;12726;49.148;8.582;2022-12-24T07:58:25;100311.25;;;10.54;96.03
24558;BME280;12726;49.148;8.582;2022-12-24T08:01:11;100323.47;;;10.57;95.58
24558;BME280;12726;49.148;8.582;2022-12-24T08:03:56;100323.47;;;10.57;95.78
24558;BME280;12726;49.148;8.582;2022-12-24T08:06:43;100324.72;;;10.54;95.82
24558;BME280;12726;49.148;8.582;2022-12-24T08:09:30;100324.91;;;10.59;95.30
24558;BME280;12726;49.148;8.582;2022-12-24T08:12:15;100323.69;;;10.55;95.96
24558;BME280;12726;49.148;8.582;2022-12-24T08:15:00;100319.94;;;10.63;96.24
24558;BME280;12726;49.148;8.582;2022-12-24T08:17:45;100330.47;;;10.65;96.07
24558;BME280;12726;49.148;8.582;2022-12-24T08:20:31;100326.72;;;10.72;95.35
24558;BME280;12726;49.148;8.582;2022-12-24T08:23:17;100326.47;;;10.74;95.72
24558;BME280;12726;49.148;8.582;2022-12-24T08:26:05;100332.28;;;10.77;95.89
24558;BME280;12726;49.148;8.582;2022-12-24T08:28:50;100327.72;;;10.78;95.73
24558;BME280;12726;49.148;8.582;2022-12-24T08:31:36;100325.81;;;10.85;95.39
24558;BME280;12726;49.148;8.582;2022-12-24T08:34:21;100324.94;;;10.91;94.42
24558;BME280;12726;49.148;8.582;2022-12-24T08:37:06;100323.53;;;10.82;94.80
24558;BME280;12726;49.148;8.582;2022-12-24T08:39:53;100337.59;;;10.90;94.17
24558;BME280;12726;49.148;8.582;2022-12-24T08:42:38;100327.75;;;11.03;93.05
24558;BME280;12726;49.148;8.582;2022-12-24T08:45:23;100338.06;;;11.12;92.71
24558;BME280;12726;49.148;8.582;2022-12-24T08:48:09;100332.63;;;11.50;90.20
24558;BME280;12726;49.148;8.582;2022-12-24T08:50:55;100342.34;;;12.19;87.12
24558;BME280;12726;49.148;8.582;2022-12-24T08:53:40;100350.47;;;12.85;81.64
24558;BME280;12726;49.148;8.582;2022-12-24T08:56:27;100348.13;;;13.19;79.90
24558;BME280;12726;49.148;8.582;2022-12-24T08:59:12;100362.91;;;13.58;77.87
24558;BME280;12726;49.148;8.582;2022-12-24T09:01:57;100363.84;;;13.40;79.04
24558;BME280;12726;49.148;8.582;2022-12-24T09:04:43;100361.53;;;13.14;79.20
24558;BME280;12726;49.148;8.582;2022-12-24T09:07:28;100369.09;;;13.05;79.46
24558;BME280;12726;49.148;8.582;2022-12-24T09:10:13;100366.44;;;12.87;80.61
24558;BME280;12726;49.148;8.582;2022-12-24T09:13:01;100372.47;;;13.19;80.36
24558;BME280;12726;49.148;8.582;2022-12-24T09:15:52;100387.78;;;13.90;76.64
24558;BME280;12726;49.148;8.582;2022-12-24T09:18:38;100382.22;;;14.43;72.34
24558;BME280;12726;49.148;8.582;2022-12-24T09:21:23;100379.28;;;14.56;73.05
24558;BME280;12726;49.148;8.582;2022-12-24T09:24:09;100389.84;;;14.69;71.34
24558;BME280;12726;49.148;8.582;2022-12-24T09:26:54;100391.78;;;14.45;71.48
24558;BME280;12726;49.148;8.582;2022-12-24T09:29:42;100397.50;;;13.79;74.60
24558;BME280;12726;49.148;8.582;2022-12-24T09:32:27;100411.47;;;13.53;75.04
24558;BME280;12726;49.148;8.582;2022-12-24T09:35:15;100426.06;;;13.22;77.13
24558;BME280;12726;49.148;8.582;2022-12-24T09:38:00;100422.47;;;13.10;77.70
24558;BME280;12726;49.148;8.582;2022-12-24T09:40:48;100412.94;;;13.37;77.83
24558;BME280;12726;49.148;8.582;2022-12-24T09:43:33;100425.44;;;13.91;73.79
24558;BME280;12726;49.148;8.582;2022-12-24T09:46:23;100428.44;;;14.88;70.47
24558;BME280;12726;49.148;8.582;2022-12-24T09:49:16;100417.16;;;15.64;66.64
24558;BME280;12726;49.148;8.582;2022-12-24T09:52:06;100417.31;;;15.58;65.82
24558;BME280;12726;49.148;8.582;2022-12-24T09:54:57;100428.34;;;14.83;68.39
24558;BME280;12726;49.148;8.582;2022-12-24T09:57:46;100428.25;;;14.08;72.15
24558;BME280;12726;49.148;8.582;2022-12-24T10:00:35;100432.19;;;13.59;73.70
24558;BME280;12726;49.148;8.582;2022-12-24T10:03:22;100431.88;;;13.07;76.42
24558;BME280;12726;49.148;8.582;2022-12-24T10:06:12;100436.84;;;12.55;78.83
24558;BME280;12726;49.148;8.582;2022-12-24T10:09:05;100438.28;;;12.15;82.24
24558;BME280;12726;49.148;8.582;2022-12-24T10:12:00;100435.88;;;11.82;84.26
24558;BME280;12726;49.148;8.582;2022-12-24T10:14:57;100446.78;;;11.62;86.66
24558;BME280;12726;49.148;8.582;2022-12-24T10:18:00;100437.19;;;11.42;88.72
24558;BME280;12726;49.148;8.582;2022-12-24T10:20:56;100440.16;;;11.27;89.79
24558;BME280;12726;49.148;8.582;2022-12-24T10:23:46;100450.16;;;11.20;91.43
24558;BME280;12726;49.148;8.582;2022-12-24T10:26:39;100452.44;;;11.16;92.45
24558;BME280;12726;49.148;8.582;2022-12-24T10:29:29;100459.72;;;11.09;93.79
24558;BME280;12726;49.148;8.582;2022-12-24T10:32:20;100463.50;;;11.02;95.24
24558;BME280;12726;49.148;8.582;2022-12-24T10:35:17;100452.97;;;11.00;96.52
24558;BME280;12726;49.148;8.582;2022-12-24T10:38:07;100455.66;;;11.00;96.90
24558;BME280;12726;49.148;8.582;2022-12-24T10:40:54;100470.56;;;10.96;96.67
24558;BME280;12726;49.148;8.582;2022-12-24T10:43:44;100467.91;;;10.89;97.51
24558;BME280;12726;49.148;8.582;2022-12-24T10:46:35;100457.38;;;10.81;97.96
24558;BME280;12726;49.148;8.582;2022-12-24T10:49:29;100470.84;;;10.81;98.55
24558;BME280;12726;49.148;8.582;2022-12-24T10:52:18;100479.69;;;10.95;98.19
24558;BME280;12726;49.148;8.582;2022-12-24T10:55:09;100470.13;;;11.06;97.72
24558;BME280;12726;49.148;8.582;2022-12-24T10:57:59;100468.66;;;11.10;97.87
24558;BME280;12726;49.148;8.582;2022-12-24T11:00:49;100460.53;;;11.16;97.97
24558;BME280;12726;49.148;8.582;2022-12-24T11:03:38;100458.34;;;11.38;96.82
24558;BME280;12726;49.148;8.582;2022-12-24T11:06:23;100456.47;;;11.76;95.78
24558;BME280;12726;49.148;8.582;2022-12-24T11:09:16;100456.91;;;13.32;87.76
24558;BME280;12726;49.148;8.582;2022-12-24T11:12:16;100465.22;;;14.72;78.67
24558;BME280;12726;49.148;8.582;2022-12-24T11:15:05;100469.06;;;15.00;75.11
24558;BME280;12726;49.148;8.582;2022-12-24T11:17:56;100470.59;;;15.64;72.51
24558;BME280;12726;49.148;8.582;2022-12-24T11:20:48;100469.94;;;16.74;70.31
24558;BME280;12726;49.148;8.582;2022-12-24T11:23:34;100466.94;;;17.89;64.58
24558;BME280;12726;49.148;8.582;2022-12-24T11:26:23;100467.19;;;18.62;61.40
24558;BME280;12726;49.148;8.582;2022-12-24T11:29:15;100471.06;;;18.66;58.73
24558;BME280;12726;49.148;8.582;2022-12-24T11:32:15;100468.09;;;17.45;62.83
24558;BME280;12726;49.148;8.582;2022-12-24T11:35:05;100463.00;;;18.12;61.28
24558;BME280;12726;49.148;8.582;2022-12-24T11:38:08;100467.22;;;17.93;61.38
24558;BME280;12726;49.148;8.582;2022-12-24T11:41:01;100459.31;;;18.60;58.83
24558;BME280;12726;49.148;8.582;2022-12-24T11:43:50;100455.31;;;19.50;57.07
24558;BME280;12726;49.148;8.582;2022-12-24T11:46:42;100447.84;;;20.88;51.65
24558;BME280;12726;49.148;8.582;2022-12-24T11:49:30;100433.81;;;21.09;50.94
24558;BME280;12726;49.148;8.582;2022-12-24T11:52:20;100439.84;;;20.96;51.19
24558;BME280;12726;49.148;8.582;2022-12-24T11:55:15;100439.88;;;21.89;47.56
24558;BME280;12726;49.148;8.582;2022-12-24T11:58:04;100428.72;;;22.44;47.00
24558;BME280;12726;49.148;8.582;2022-12-24T12:01:01;100425.44;;;21.79;46.69
24558;BME280;12726;49.148;8.582;2022-12-24T12:03:50;100437.88;;;19.92;51.11
24558;BME280;12726;49.148;8.582;2022-12-24T12:06:40;100444.53;;;18.56;56.27
24558;BME280;12726;49.148;8.582;2022-12-24T12:09:29;100437.97;;;16.81;62.55
24558;BME280;12726;49.148;8.582;2022-12-24T12:12:25;100427.78;;;15.38;68.43
24558;BME280;12726;49.148;8.582;2022-12-24T12:15:12;100442.97;;;14.24;74.45
24558;BME280;12726;49.148;8.582;2022-12-24T12:18:04;100444.16;;;13.51;77.37
24558;BME280;12726;49.148;8.582;2022-12-24T12:20:56;100441.25;;;13.05;80.57
24558;BME280;12726;49.148;8.582;2022-12-24T12:23:46;100448.25;;;12.76;82.48
24558;BME280;12726;49.148;8.582;2022-12-24T12:26:33;100448.03;;;12.77;83.91
24558;BME280;12726;49.148;8.582;2022-12-24T12:29:24;100445.56;;;12.76;83.42
24558;BME280;12726;49.148;8.582;2022-12-24T12:32:15;100445.47;;;12.82;84.58
24558;BME280;12726;49.148;8.582;2022-12-24T12:35:15;100447.13;;;12.65;84.50
24558;BME280;12726;49.148;8.582;2022-12-24T12:38:07;100452.59;;;12.59;84.98
24558;BME280;12726;49.148;8.582;2022-12-24T12:41:12;100450.72;;;12.59;84.71
24558;BME280;12726;49.148;8.582;2022-12-24T12:44:17;100434.28;;;12.42;84.79
24558;BME280;12726;49.148;8.582;2022-12-24T12:47:30;100436.88;;;12.31;86.65
24558;BME280;12726;49.148;8.582;2022-12-24T12:50:22;100444.16;;;12.30;86.40
24558;BME280;12726;49.148;8.582;2022-12-24T12:53:23;100449.41;;;12.25;87.33
24558;BME280;12726;49.148;8.582;2022-12-24T12:56:20;100441.47;;;12.30;87.63
24558;BME280;12726;49.148;8.582;2022-12-24T12:59:09;100427.38;;;12.65;84.72
24558;BME280;12726;49.148;8.582;2022-12-24T13:02:02;100439.25;;;12.64;84.79
24558;BME280;12726;49.148;8.582;2022-12-24T13:05:18;100439.69;;;12.61;85.39
24558;BME280;12726;49.148;8.582;2022-12-24T13:08:22;100449.22;;;12.45;84.95
24558;BME280;12726;49.148;8.582;2022-12-24T13:11:30;100445.16;;;12.36;86.29
24558;BME280;12726;49.148;8.582;2022-12-24T13:14:44;100455.78;;;12.31;86.46
24558;BME280;12726;49.148;8.582;2022-12-24T13:17:53;100454.19;;;12.23;86.52
24558;BME280;12726;49.148;8.582;2022-12-24T13:20:45;100456.47;;;12.26;87.23
24558;BME280;12726;49.148;8.582;2022-12-24T13:23:33;100450.25;;;12.26;87.08
24558;BME280;12726;49.148;8.582;2022-12-24T13:26:19;100444.28;;;12.17;87.21
24558;BME280;12726;49.148;8.582;2022-12-24T13:29:30;100449.63;;;12.24;87.44
24558;BME280;12726;49.148;8.582;2022-12-24T13:35:57;100457.78;;;12.17;87.73
24558;BME280;12726;49.148;8.582;2022-12-24T13:38:45;100456.13;;;12.16;87.63
24558;BME280;12726;49.148;8.582;2022-12-24T13:41:55;100446.44;;;12.33;87.41
24558;BME280;12726;49.148;8.582;2022-12-24T13:44:40;100439.44;;;12.26;87.18
24558;BME280;12726;49.148;8.582;2022-12-24T13:47:26;100442.00;;;12.39;86.24
24558;BME280;12726;49.148;8.582;2022-12-24T13:50:20;100428.91;;;12.42;85.80
24558;BME280;12726;49.148;8.582;2022-12-24T13:53:20;100447.88;;;12.36;85.94
24558;BME280;12726;49.148;8.582;2022-12-24T13:56:09;100440.63;;;12.30;86.70
24558;BME280;12726;49.148;8.582;2022-12-24T13:59:21;100434.31;;;12.18;87.69
24558;BME280;12726;49.148;8.582;2022-12-24T14:02:17;100447.59;;;12.19;87.39
24558;BME280;12726;49.148;8.582;2022-12-24T14:05:06;100432.13;;;12.08;87.44
24558;BME280;12726;49.148;8.582;2022-12-24T14:08:01;100444.56;;;12.09;87.92
24558;BME280;12726;49.148;8.582;2022-12-24T14:10:58;100440.53;;;12.00;87.70
24558;BME280;12726;49.148;8.582;2022-12-24T14:14:26;100441.00;;;11.90;88.70
24558;BME280;12726;49.148;8.582;2022-12-24T14:17:14;100438.97;;;11.86;88.41
24558;BME280;12726;49.148;8.582;2022-12-24T14:20:06;100427.56;;;11.84;88.85
24558;BME280;12726;49.148;8.582;2022-12-24T14:22:53;100428.78;;;11.88;88.17
24558;BME280;12726;49.148;8.582;2022-12-24T14:25:40;100424.31;;;11.75;88.29
24558;BME280;12726;49.148;8.582;2022-12-24T14:28:31;100439.47;;;11.69;88.88
24558;BME280;12726;49.148;8.582;2022-12-24T14:31:19;100441.22;;;11.57;89.66
24558;BME280;12726;49.148;8.582;2022-12-24T14:34:05;100432.13;;;11.52;89.70
24558;BME280;12726;49.148;8.582;2022-12-24T14:36:52;100431.59;;;11.43;89.98
24558;BME280;12726;49.148;8.582;2022-12-24T14:39:42;100437.03;;;11.36;90.44
24558;BME280;12726;49.148;8.582;2022-12-24T14:42:35;100434.94;;;11.32;90.13
24558;BME280;12726;49.148;8.582;2022-12-24T14:45:28;100438.16;;;11.16;91.13
24558;BME280;12726;49.148;8.582;2022-12-24T14:48:23;100453.50;;;11.09;91.96